sensor_id;sensor_type;location;lat;lon;timestamp;P1;durP1;ratioP1;P2;durP2;ratioP2
25079;SDS011;13071;48.868;9.996;2022-07-12T00:02:02;4.35;;;3.33;;
25079;SDS011;13071;48.868;9.996;2022-07-12T00:04:29;4.15;;;3.13;;
25079;SDS011;13071;48.868;9.996;2022-07-12T00:06:55;3.38;;;3.08;;
25079;SDS011;13071;48.868;9.996;2022-07-12T00:09:23;8.40;;;3.70;;
25079;SDS011;13071;48.868;9.996;2022-07-12T00:11:50;4.25;;;3.60;;
25079;SDS011;13071;48.868;9.996;2022-07-12T00:14:17;6.32;;;3.45;;
25079;SDS011;13071;48.868;9.996;2022-07-12T00:16:43;3.70;;;3.30;;
25079;SDS011;13071;48.868;9.996;2022-07-12T00:19:10;4.70;;;3.33;;
25079;SDS011;13071;48.868;9.996;2022-07-12T00:21:36;4.53;;;3.50;;
25079;SDS011;13071;48.868;9.996;2022-07-12T00:24:03;5.13;;;3.30;;
25079;SDS011;13071;48.868;9.996;2022-07-12T00:26:31;4.43;;;3.53;;
25079;SDS011;13071;48.868;9.996;2022-07-12T00:28:58;4.43;;;3.47;;
25079;SDS011;13071;48.868;9.996;2022-07-12T00:31:25;5.05;;;3.67;;
25079;SDS011;13071;48.868;9.996;2022-07-12T00:33:51;5.03;;;3.47;;
25079;SDS011;13071;48.868;9.996;2022-07-12T00:36:18;3.50;;;3.20;;
25079;SDS011;13071;48.868;9.996;2022-07-12T00:38:45;3.95;;;3.30;;
25079;SDS011;13071;48.868;9.996;2022-07-12T00:41:11;5.90;;;3.80;;
25079;SDS011;13071;48.868;9.996;2022-07-12T00:43:40;13.27;;;4.13;;
25079;SDS011;13071;48.868;9.996;2022-07-12T00:46:07;5.35;;;3.30;;
25079;SDS011;13071;48.868;9.996;2022-07-12T00:48:33;3.38;;;3.08;;
25079;SDS011;13071;48.868;9.996;2022-07-12T00:51:01;4.43;;;3.70;;
25079;SDS011;13071;48.868;9.996;2022-07-12T00:53:28;3.60;;;3.30;;
25079;SDS011;13071;48.868;9.996;2022-07-12T00:55:56;5.50;;;3.47;;
25079;SDS011;13071;48.868;9.996;2022-07-12T00:58:23;5.35;;;3.30;;
25079;SDS011;13071;48.868;9.996;2022-07-12T01:00:51;3.88;;;3.50;;
25079;SDS011;13071;48.868;9.996;2022-07-12T01:03:20;4.45;;;3.58;;
25079;SDS011;13071;48.868;9.996;2022-07-12T01:05:47;3.90;;;3.50;;
25079;SDS011;13071;48.868;9.996;2022-07-12T01:08:14;4.85;;;3.70;;
25079;SDS011;13071;48.868;9.996;2022-07-12T01:10:42;4.05;;;3.53;;
25079;SDS011;13071;48.868;9.996;2022-07-12T01:13:11;4.03;;;3.22;;
25079;SDS011;13071;48.868;9.996;2022-07-12T01:15:38;4.00;;;3.55;;
25079;SDS011;13071;48.868;9.996;2022-07-12T01:18:07;4.25;;;3.50;;
25079;SDS011;13071;48.868;9.996;2022-07-12T01:20:36;6.18;;;3.67;;
25079;SDS011;13071;48.868;9.996;2022-07-12T01:23:04;6.55;;;3.75;;
25079;SDS011;13071;48.868;9.996;2022-07-12T01:25:31;4.50;;;3.53;;
25079;SDS011;13071;48.868;9.996;2022-07-12T01:27:58;3.30;;;2.95;;
25079;SDS011;13071;48.868;9.996;2022-07-12T01:30:25;3.78;;;3.38;;
25079;SDS011;13071;48.868;9.996;2022-07-12T01:32:51;3.65;;;3.30;;
25079;SDS011;13071;48.868;9.996;2022-07-12T01:35:18;3.90;;;3.38;;
25079;SDS011;13071;48.868;9.996;2022-07-12T01:37:47;5.68;;;3.67;;
25079;SDS011;13071;48.868;9.996;2022-07-12T01:40:16;4.97;;;3.90;;
25079;SDS011;13071;48.868;9.996;2022-07-12T01:42:43;6.55;;;3.47;;
25079;SDS011;13071;48.868;9.996;2022-07-12T01:45:10;6.38;;;3.60;;
25079;SDS011;13071;48.868;9.996;2022-07-12T01:47:38;4.55;;;3.60;;
25079;SDS011;13071;48.868;9.996;2022-07-12T01:50:06;4.38;;;3.40;;
25079;SDS011;13071;48.868;9.996;2022-07-12T01:52:34;4.03;;;3.58;;
25079;SDS011;13071;48.868;9.996;2022-07-12T01:55:01;5.47;;;3.75;;
25079;SDS011;13071;48.868;9.996;2022-07-12T01:57:30;4.13;;;3.55;;
25079;SDS011;13071;48.868;9.996;2022-07-12T01:59:57;4.88;;;3.50;;
25079;SDS011;13071;48.868;9.996;2022-07-12T02:02:26;3.75;;;3.30;;
25079;SDS011;13071;48.868;9.996;2022-07-12T02:04:55;4.88;;;3.17;;
25079;SDS011;13071;48.868;9.996;2022-07-12T02:07:23;4.60;;;3.42;;
25079;SDS011;13071;48.868;9.996;2022-07-12T02:09:50;6.05;;;4.00;;
25079;SDS011;13071;48.868;9.996;2022-07-12T02:12:17;6.57;;;3.88;;
25079;SDS011;13071;48.868;9.996;2022-07-12T02:14:45;3.78;;;3.38;;
25079;SDS011;13071;48.868;9.996;2022-07-12T02:17:12;5.45;;;3.80;;
25079;SDS011;13071;48.868;9.996;2022-07-12T02:19:38;5.32;;;4.00;;
25079;SDS011;13071;48.868;9.996;2022-07-12T02:22:05;4.22;;;3.47;;
25079;SDS011;13071;48.868;9.996;2022-07-12T02:24:31;4.05;;;3.60;;
25079;SDS011;13071;48.868;9.996;2022-07-12T02:26:58;7.60;;;3.80;;
25079;SDS011;13071;48.868;9.996;2022-07-12T02:29:25;5.20;;;3.75;;
25079;SDS011;13071;48.868;9.996;2022-07-12T02:31:53;3.83;;;3.28;;
25079;SDS011;13071;48.868;9.996;2022-07-12T02:34:19;5.03;;;3.85;;
25079;SDS011;13071;48.868;9.996;2022-07-12T02:36:46;4.35;;;3.78;;
25079;SDS011;13071;48.868;9.996;2022-07-12T02:39:13;4.45;;;3.58;;
25079;SDS011;13071;48.868;9.996;2022-07-12T02:41:40;4.47;;;3.90;;
25079;SDS011;13071;48.868;9.996;2022-07-12T02:44:06;4.60;;;3.60;;
25079;SDS011;13071;48.868;9.996;2022-07-12T02:46:33;5.53;;;3.85;;
25079;SDS011;13071;48.868;9.996;2022-07-12T02:49:02;6.35;;;3.72;;
25079;SDS011;13071;48.868;9.996;2022-07-12T02:51:28;8.63;;;4.20;;
25079;SDS011;13071;48.868;9.996;2022-07-12T02:53:55;5.05;;;3.78;;
25079;SDS011;13071;48.868;9.996;2022-07-12T02:56:21;4.57;;;3.30;;
25079;SDS011;13071;48.868;9.996;2022-07-12T02:58:48;5.03;;;3.63;;
25079;SDS011;13071;48.868;9.996;2022-07-12T03:01:15;6.18;;;3.95;;
25079;SDS011;13071;48.868;9.996;2022-07-12T03:03:41;6.28;;;3.97;;
25079;SDS011;13071;48.868;9.996;2022-07-12T03:06:09;4.70;;;3.95;;
25079;SDS011;13071;48.868;9.996;2022-07-12T03:08:37;4.85;;;3.72;;
25079;SDS011;13071;48.868;9.996;2022-07-12T03:11:04;3.90;;;3.38;;
25079;SDS011;13071;48.868;9.996;2022-07-12T03:13:31;6.72;;;4.28;;
25079;SDS011;13071;48.868;9.996;2022-07-12T03:15:57;5.50;;;3.45;;
25079;SDS011;13071;48.868;9.996;2022-07-12T03:18:24;3.65;;;3.20;;
25079;SDS011;13071;48.868;9.996;2022-07-12T03:20:51;5.97;;;3.22;;
25079;SDS011;13071;48.868;9.996;2022-07-12T03:23:19;4.68;;;3.58;;
25079;SDS011;13071;48.868;9.996;2022-07-12T03:25:46;5.00;;;3.50;;
25079;SDS011;13071;48.868;9.996;2022-07-12T03:28:12;4.75;;;3.53;;
25079;SDS011;13071;48.868;9.996;2022-07-12T03:30:39;4.35;;;3.55;;
25079;SDS011;13071;48.868;9.996;2022-07-12T03:33:05;4.60;;;3.58;;
25079;SDS011;13071;48.868;9.996;2022-07-12T03:35:32;4.72;;;3.30;;
25079;SDS011;13071;48.868;9.996;2022-07-12T03:38:00;5.30;;;3.88;;
25079;SDS011;13071;48.868;9.996;2022-07-12T03:40:30;6.30;;;3.80;;
25079;SDS011;13071;48.868;9.996;2022-07-12T03:42:57;5.38;;;3.55;;
25079;SDS011;13071;48.868;9.996;2022-07-12T03:45:24;3.88;;;3.00;;
25079;SDS011;13071;48.868;9.996;2022-07-12T03:47:51;5.40;;;3.83;;
25079;SDS011;13071;48.868;9.996;2022-07-12T03:50:17;4.97;;;3.67;;
25079;SDS011;13071;48.868;9.996;2022-07-12T03:52:44;4.43;;;3.22;;
25079;SDS011;13071;48.868;9.996;2022-07-12T03:55:11;4.55;;;3.80;;
25079;SDS011;13071;48.868;9.996;2022-07-12T03:57:39;5.45;;;3.72;;
25079;SDS011;13071;48.868;9.996;2022-07-12T04:00:07;4.43;;;3.40;;
25079;SDS011;13071;48.868;9.996;2022-07-12T04:02:36;4.68;;;3.75;;
25079;SDS011;13071;48.868;9.996;2022-07-12T04:05:04;5.13;;;3.15;;
25079;SDS011;13071;48.868;9.996;2022-07-12T04:07:32;4.78;;;3.80;;
25079;SDS011;13071;48.868;9.996;2022-07-12T04:09:58;5.22;;;3.75;;
25079;SDS011;13071;48.868;9.996;2022-07-12T04:12:25;4.80;;;3.55;;
25079;SDS011;13071;48.868;9.996;2022-07-12T04:14:53;4.97;;;3.70;;
25079;SDS011;13071;48.868;9.996;2022-07-12T04:17:19;4.18;;;3.20;;
25079;SDS011;13071;48.868;9.996;2022-07-12T04:19:46;5.85;;;3.78;;
25079;SDS011;13071;48.868;9.996;2022-07-12T04:22:12;4.63;;;3.58;;
25079;SDS011;13071;48.868;9.996;2022-07-12T04:24:39;3.55;;;3.08;;
25079;SDS011;13071;48.868;9.996;2022-07-12T04:27:06;3.25;;;2.95;;
25079;SDS011;13071;48.868;9.996;2022-07-12T04:29:32;4.68;;;3.33;;
25079;SDS011;13071;48.868;9.996;2022-07-12T04:32:00;6.35;;;3.40;;
25079;SDS011;13071;48.868;9.996;2022-07-12T04:34:27;3.80;;;3.38;;
25079;SDS011;13071;48.868;9.996;2022-07-12T04:36:53;3.33;;;3.05;;
25079;SDS011;13071;48.868;9.996;2022-07-12T04:39:20;4.55;;;3.22;;
25079;SDS011;13071;48.868;9.996;2022-07-12T04:41:47;4.40;;;3.60;;
25079;SDS011;13071;48.868;9.996;2022-07-12T04:44:14;7.63;;;3.30;;
25079;SDS011;13071;48.868;9.996;2022-07-12T04:46:41;4.13;;;3.65;;
25079;SDS011;13071;48.868;9.996;2022-07-12T04:49:08;4.60;;;3.58;;
25079;SDS011;13071;48.868;9.996;2022-07-12T04:51:35;3.35;;;3.05;;
25079;SDS011;13071;48.868;9.996;2022-07-12T04:54:02;3.25;;;2.72;;
25079;SDS011;13071;48.868;9.996;2022-07-12T04:56:29;7.13;;;3.50;;
25079;SDS011;13071;48.868;9.996;2022-07-12T04:58:55;4.07;;;3.35;;
25079;SDS011;13071;48.868;9.996;2022-07-12T05:01:22;4.57;;;3.30;;
25079;SDS011;13071;48.868;9.996;2022-07-12T05:03:49;3.58;;;3.28;;
25079;SDS011;13071;48.868;9.996;2022-07-12T05:06:17;3.78;;;3.05;;
25079;SDS011;13071;48.868;9.996;2022-07-12T05:08:44;4.15;;;3.15;;
25079;SDS011;13071;48.868;9.996;2022-07-12T05:11:11;6.63;;;3.50;;
25079;SDS011;13071;48.868;9.996;2022-07-12T05:13:38;3.45;;;3.00;;
25079;SDS011;13071;48.868;9.996;2022-07-12T05:16:05;3.63;;;3.33;;
25079;SDS011;13071;48.868;9.996;2022-07-12T05:18:32;3.58;;;3.22;;
25079;SDS011;13071;48.868;9.996;2022-07-12T05:20:59;4.40;;;3.30;;
25079;SDS011;13071;48.868;9.996;2022-07-12T05:23:27;4.63;;;3.13;;
25079;SDS011;13071;48.868;9.996;2022-07-12T05:25:54;3.35;;;3.05;;
25079;SDS011;13071;48.868;9.996;2022-07-12T05:28:21;4.38;;;3.33;;
25079;SDS011;13071;48.868;9.996;2022-07-12T05:30:47;3.60;;;3.28;;
25079;SDS011;13071;48.868;9.996;2022-07-12T05:33:14;4.97;;;3.42;;
25079;SDS011;13071;48.868;9.996;2022-07-12T05:35:40;4.85;;;2.85;;
25079;SDS011;13071;48.868;9.996;2022-07-12T05:38:07;5.50;;;3.63;;
25079;SDS011;13071;48.868;9.996;2022-07-12T05:40:35;4.70;;;3.35;;
25079;SDS011;13071;48.868;9.996;2022-07-12T05:43:02;4.80;;;3.47;;
25079;SDS011;13071;48.868;9.996;2022-07-12T05:45:28;3.83;;;3.30;;
25079;SDS011;13071;48.868;9.996;2022-07-12T05:47:55;3.85;;;3.25;;
25079;SDS011;13071;48.868;9.996;2022-07-12T05:50:22;5.28;;;3.05;;
25079;SDS011;13071;48.868;9.996;2022-07-12T05:52:48;4.68;;;3.58;;
25079;SDS011;13071;48.868;9.996;2022-07-12T05:55:32;5.05;;;3.33;;
25079;SDS011;13071;48.868;9.996;2022-07-12T05:58:00;3.83;;;3.42;;
25079;SDS011;13071;48.868;9.996;2022-07-12T06:00:27;3.25;;;2.95;;
25079;SDS011;13071;48.868;9.996;2022-07-12T06:02:54;3.80;;;3.47;;
25079;SDS011;13071;48.868;9.996;2022-07-12T06:05:20;4.00;;;3.50;;
25079;SDS011;13071;48.868;9.996;2022-07-12T06:07:47;4.28;;;3.58;;
25079;SDS011;13071;48.868;9.996;2022-07-12T06:10:14;3.97;;;3.10;;
25079;SDS011;13071;48.868;9.996;2022-07-12T06:12:40;4.60;;;3.63;;
25079;SDS011;13071;48.868;9.996;2022-07-12T06:15:09;3.53;;;3.17;;
25079;SDS011;13071;48.868;9.996;2022-07-12T06:17:36;3.65;;;3.25;;
25079;SDS011;13071;48.868;9.996;2022-07-12T06:20:03;3.75;;;3.40;;
25079;SDS011;13071;48.868;9.996;2022-07-12T06:22:30;4.60;;;3.53;;
25079;SDS011;13071;48.868;9.996;2022-07-12T06:24:57;4.03;;;3.30;;
25079;SDS011;13071;48.868;9.996;2022-07-12T06:27:23;4.85;;;3.90;;
25079;SDS011;13071;48.868;9.996;2022-07-12T06:29:50;4.68;;;4.18;;
25079;SDS011;13071;48.868;9.996;2022-07-12T06:32:18;4.00;;;3.60;;
25079;SDS011;13071;48.868;9.996;2022-07-12T06:34:45;3.40;;;3.03;;
25079;SDS011;13071;48.868;9.996;2022-07-12T06:37:12;3.42;;;2.90;;
25079;SDS011;13071;48.868;9.996;2022-07-12T06:39:39;2.50;;;2.30;;
25079;SDS011;13071;48.868;9.996;2022-07-12T06:42:06;10.05;;;2.60;;
25079;SDS011;13071;48.868;9.996;2022-07-12T06:44:33;4.05;;;2.13;;
25079;SDS011;13071;48.868;9.996;2022-07-12T06:47:00;2.60;;;2.40;;
25079;SDS011;13071;48.868;9.996;2022-07-12T06:49:28;2.20;;;2.00;;
25079;SDS011;13071;48.868;9.996;2022-07-12T06:51:55;3.20;;;2.25;;
25079;SDS011;13071;48.868;9.996;2022-07-12T06:54:22;2.20;;;1.98;;
25079;SDS011;13071;48.868;9.996;2022-07-12T06:56:50;2.38;;;2.20;;
25079;SDS011;13071;48.868;9.996;2022-07-12T06:59:17;3.50;;;2.17;;
25079;SDS011;13071;48.868;9.996;2022-07-12T07:01:44;2.30;;;2.10;;
25079;SDS011;13071;48.868;9.996;2022-07-12T07:04:11;1.60;;;1.50;;
25079;SDS011;13071;48.868;9.996;2022-07-12T07:06:39;1.80;;;1.70;;
25079;SDS011;13071;48.868;9.996;2022-07-12T07:09:06;1.35;;;1.25;;
25079;SDS011;13071;48.868;9.996;2022-07-12T07:11:33;1.30;;;1.30;;
25079;SDS011;13071;48.868;9.996;2022-07-12T07:14:02;1.15;;;1.15;;
25079;SDS011;13071;48.868;9.996;2022-07-12T07:16:29;2.10;;;1.20;;
25079;SDS011;13071;48.868;9.996;2022-07-12T07:18:55;0.98;;;0.98;;
25079;SDS011;13071;48.868;9.996;2022-07-12T07:21:22;0.50;;;0.50;;
25079;SDS011;13071;48.868;9.996;2022-07-12T07:23:50;1.45;;;1.15;;
25079;SDS011;13071;48.868;9.996;2022-07-12T07:26:17;0.80;;;0.73;;
25079;SDS011;13071;48.868;9.996;2022-07-12T07:28:44;1.30;;;0.80;;
25079;SDS011;13071;48.868;9.996;2022-07-12T07:31:28;0.90;;;0.90;;
25079;SDS011;13071;48.868;9.996;2022-07-12T07:33:56;1.60;;;1.50;;
25079;SDS011;13071;48.868;9.996;2022-07-12T07:36:22;1.10;;;1.10;;
25079;SDS011;13071;48.868;9.996;2022-07-12T07:38:50;1.42;;;1.00;;
25079;SDS011;13071;48.868;9.996;2022-07-12T07:41:17;0.88;;;0.88;;
25079;SDS011;13071;48.868;9.996;2022-07-12T07:43:44;0.68;;;0.68;;
25079;SDS011;13071;48.868;9.996;2022-07-12T07:46:10;0.90;;;0.90;;
25079;SDS011;13071;48.868;9.996;2022-07-12T07:48:37;0.95;;;0.95;;
25079;SDS011;13071;48.868;9.996;2022-07-12T07:51:04;0.70;;;0.70;;
25079;SDS011;13071;48.868;9.996;2022-07-12T07:53:31;0.73;;;0.73;;
25079;SDS011;13071;48.868;9.996;2022-07-12T07:55:59;0.80;;;0.80;;
25079;SDS011;13071;48.868;9.996;2022-07-12T07:58:25;0.80;;;0.80;;
25079;SDS011;13071;48.868;9.996;2022-07-12T08:00:53;0.73;;;0.73;;
25079;SDS011;13071;48.868;9.996;2022-07-12T08:03:20;0.55;;;0.55;;
25079;SDS011;13071;48.868;9.996;2022-07-12T08:05:47;0.60;;;0.60;;
25079;SDS011;13071;48.868;9.996;2022-07-12T08:08:16;0.90;;;0.75;;
25079;SDS011;13071;48.868;9.996;2022-07-12T08:10:42;0.40;;;0.40;;
25079;SDS011;13071;48.868;9.996;2022-07-12T08:13:10;0.40;;;0.40;;
25079;SDS011;13071;48.868;9.996;2022-07-12T08:15:37;1.02;;;0.50;;
25079;SDS011;13071;48.868;9.996;2022-07-12T08:18:03;1.48;;;0.40;;
25079;SDS011;13071;48.868;9.996;2022-07-12T08:20:30;0.40;;;0.40;;
25079;SDS011;13071;48.868;9.996;2022-07-12T08:22:57;0.35;;;0.35;;
25079;SDS011;13071;48.868;9.996;2022-07-12T08:25:24;0.50;;;0.50;;
25079;SDS011;13071;48.868;9.996;2022-07-12T08:27:50;0.40;;;0.40;;
25079;SDS011;13071;48.868;9.996;2022-07-12T08:30:19;0.50;;;0.50;;
25079;SDS011;13071;48.868;9.996;2022-07-12T08:32:45;0.35;;;0.35;;
25079;SDS011;13071;48.868;9.996;2022-07-12T08:35:13;0.52;;;0.52;;
25079;SDS011;13071;48.868;9.996;2022-07-12T08:37:40;0.50;;;0.50;;
25079;SDS011;13071;48.868;9.996;2022-07-12T08:40:07;1.08;;;0.50;;
25079;SDS011;13071;48.868;9.996;2022-07-12T08:42:35;0.60;;;0.60;;
25079;SDS011;13071;48.868;9.996;2022-07-12T08:45:02;0.85;;;0.70;;
25079;SDS011;13071;48.868;9.996;2022-07-12T08:47:30;0.40;;;0.40;;
25079;SDS011;13071;48.868;9.996;2022-07-12T08:50:10;0.50;;;0.50;;
25079;SDS011;13071;48.868;9.996;2022-07-12T08:52:38;0.60;;;0.43;;
25079;SDS011;13071;48.868;9.996;2022-07-12T08:55:16;0.52;;;0.52;;
25079;SDS011;13071;48.868;9.996;2022-07-12T08:57:44;0.60;;;0.50;;
25079;SDS011;13071;48.868;9.996;2022-07-12T09:00:11;0.40;;;0.40;;
25079;SDS011;13071;48.868;9.996;2022-07-12T09:02:49;0.70;;;0.70;;
25079;SDS011;13071;48.868;9.996;2022-07-12T09:05:18;0.47;;;0.47;;
25079;SDS011;13071;48.868;9.996;2022-07-12T09:07:45;1.23;;;0.70;;
25079;SDS011;13071;48.868;9.996;2022-07-12T09:10:12;0.50;;;0.50;;
25079;SDS011;13071;48.868;9.996;2022-07-12T09:12:40;0.57;;;0.57;;
25079;SDS011;13071;48.868;9.996;2022-07-12T09:15:14;0.43;;;0.43;;
25079;SDS011;13071;48.868;9.996;2022-07-12T09:17:46;0.50;;;0.50;;
25079;SDS011;13071;48.868;9.996;2022-07-12T09:20:21;0.50;;;0.50;;
25079;SDS011;13071;48.868;9.996;2022-07-12T09:22:53;0.40;;;0.40;;
25079;SDS011;13071;48.868;9.996;2022-07-12T09:25:21;0.35;;;0.35;;
25079;SDS011;13071;48.868;9.996;2022-07-12T09:27:52;0.47;;;0.47;;
25079;SDS011;13071;48.868;9.996;2022-07-12T09:30:20;0.43;;;0.43;;
25079;SDS011;13071;48.868;9.996;2022-07-12T09:32:57;0.55;;;0.50;;
25079;SDS011;13071;48.868;9.996;2022-07-12T09:35:46;0.45;;;0.45;;
25079;SDS011;13071;48.868;9.996;2022-07-12T09:38:35;0.30;;;0.30;;
25079;SDS011;13071;48.868;9.996;2022-07-12T09:41:03;0.50;;;0.50;;
25079;SDS011;13071;48.868;9.996;2022-07-12T09:43:30;0.40;;;0.40;;
25079;SDS011;13071;48.868;9.996;2022-07-12T09:45:57;0.40;;;0.40;;
25079;SDS011;13071;48.868;9.996;2022-07-12T09:48:25;1.15;;;0.55;;
25079;SDS011;13071;48.868;9.996;2022-07-12T09:50:55;0.40;;;0.40;;
25079;SDS011;13071;48.868;9.996;2022-07-12T09:53:26;0.40;;;0.40;;
25079;SDS011;13071;48.868;9.996;2022-07-12T09:55:54;0.40;;;0.40;;
25079;SDS011;13071;48.868;9.996;2022-07-12T09:58:26;0.40;;;0.40;;
25079;SDS011;13071;48.868;9.996;2022-07-12T10:00:53;1.85;;;0.40;;
25079;SDS011;13071;48.868;9.996;2022-07-12T10:03:22;0.40;;;0.40;;
25079;SDS011;13071;48.868;9.996;2022-07-12T10:05:50;0.25;;;0.25;;
25079;SDS011;13071;48.868;9.996;2022-07-12T10:08:20;0.32;;;0.32;;
25079;SDS011;13071;48.868;9.996;2022-07-12T10:10:48;0.40;;;0.40;;
25079;SDS011;13071;48.868;9.996;2022-07-12T10:13:15;0.38;;;0.38;;
25079;SDS011;13071;48.868;9.996;2022-07-12T10:15:44;0.30;;;0.30;;
25079;SDS011;13071;48.868;9.996;2022-07-12T10:18:16;0.40;;;0.40;;
25079;SDS011;13071;48.868;9.996;2022-07-12T10:20:44;0.80;;;0.47;;
25079;SDS011;13071;48.868;9.996;2022-07-12T10:23:28;0.30;;;0.30;;
25079;SDS011;13071;48.868;9.996;2022-07-12T10:26:16;0.45;;;0.45;;
25079;SDS011;13071;48.868;9.996;2022-07-12T10:28:54;0.30;;;0.30;;
25079;SDS011;13071;48.868;9.996;2022-07-12T10:31:22;0.60;;;0.60;;
25079;SDS011;13071;48.868;9.996;2022-07-12T10:33:58;0.30;;;0.30;;
25079;SDS011;13071;48.868;9.996;2022-07-12T10:39:34;0.50;;;0.50;;
25079;SDS011;13071;48.868;9.996;2022-07-12T10:42:14;0.57;;;0.57;;
25079;SDS011;13071;48.868;9.996;2022-07-12T10:44:42;0.43;;;0.38;;
25079;SDS011;13071;48.868;9.996;2022-07-12T10:47:12;0.30;;;0.30;;
25079;SDS011;13071;48.868;9.996;2022-07-12T10:49:47;0.40;;;0.40;;
25079;SDS011;13071;48.868;9.996;2022-07-12T10:52:15;0.40;;;0.40;;
25079;SDS011;13071;48.868;9.996;2022-07-12T10:57:46;0.50;;;0.50;;
25079;SDS011;13071;48.868;9.996;2022-07-12T11:00:16;0.30;;;0.30;;
25079;SDS011;13071;48.868;9.996;2022-07-12T11:02:44;0.30;;;0.30;;
25079;SDS011;13071;48.868;9.996;2022-07-12T11:05:10;0.30;;;0.30;;
25079;SDS011;13071;48.868;9.996;2022-07-12T11:07:37;0.52;;;0.50;;
25079;SDS011;13071;48.868;9.996;2022-07-12T11:10:04;0.28;;;0.28;;
25079;SDS011;13071;48.868;9.996;2022-07-12T11:12:33;0.40;;;0.40;;
25079;SDS011;13071;48.868;9.996;2022-07-12T11:14:59;0.40;;;0.40;;
25079;SDS011;13071;48.868;9.996;2022-07-12T11:17:28;0.80;;;0.50;;
25079;SDS011;13071;48.868;9.996;2022-07-12T11:20:03;0.50;;;0.50;;
25079;SDS011;13071;48.868;9.996;2022-07-12T11:22:31;0.40;;;0.40;;
25079;SDS011;13071;48.868;9.996;2022-07-12T11:24:58;0.40;;;0.40;;
25079;SDS011;13071;48.868;9.996;2022-07-12T11:27:25;0.40;;;0.40;;
25079;SDS011;13071;48.868;9.996;2022-07-12T11:29:57;0.47;;;0.47;;
25079;SDS011;13071;48.868;9.996;2022-07-12T11:32:32;0.40;;;0.40;;
25079;SDS011;13071;48.868;9.996;2022-07-12T11:35:00;0.32;;;0.32;;
25079;SDS011;13071;48.868;9.996;2022-07-12T11:37:26;2.53;;;0.40;;
25079;SDS011;13071;48.868;9.996;2022-07-12T11:39:53;0.50;;;0.50;;
25079;SDS011;13071;48.868;9.996;2022-07-12T11:42:19;0.90;;;0.70;;
25079;SDS011;13071;48.868;9.996;2022-07-12T11:44:47;0.30;;;0.30;;
25079;SDS011;13071;48.868;9.996;2022-07-12T11:47:16;1.58;;;0.47;;
25079;SDS011;13071;48.868;9.996;2022-07-12T11:49:44;0.40;;;0.40;;
25079;SDS011;13071;48.868;9.996;2022-07-12T11:52:12;0.40;;;0.40;;
25079;SDS011;13071;48.868;9.996;2022-07-12T11:54:39;0.65;;;0.40;;
25079;SDS011;13071;48.868;9.996;2022-07-12T11:57:07;0.50;;;0.50;;
25079;SDS011;13071;48.868;9.996;2022-07-12T11:59:34;0.40;;;0.40;;
25079;SDS011;13071;48.868;9.996;2022-07-12T12:02:04;1.38;;;0.60;;
25079;SDS011;13071;48.868;9.996;2022-07-12T12:04:33;0.50;;;0.50;;
25079;SDS011;13071;48.868;9.996;2022-07-12T12:07:10;1.00;;;0.50;;
25079;SDS011;13071;48.868;9.996;2022-07-12T12:09:59;0.40;;;0.40;;
25079;SDS011;13071;48.868;9.996;2022-07-12T12:12:28;0.40;;;0.40;;
25079;SDS011;13071;48.868;9.996;2022-07-12T12:15:01;0.40;;;0.40;;
25079;SDS011;13071;48.868;9.996;2022-07-12T12:17:29;0.40;;;0.40;;
25079;SDS011;13071;48.868;9.996;2022-07-12T12:19:57;0.60;;;0.60;;
25079;SDS011;13071;48.868;9.996;2022-07-12T12:22:34;0.45;;;0.45;;
25079;SDS011;13071;48.868;9.996;2022-07-12T12:25:00;0.43;;;0.43;;
25079;SDS011;13071;48.868;9.996;2022-07-12T12:27:29;0.52;;;0.40;;
25079;SDS011;13071;48.868;9.996;2022-07-12T12:29:57;0.50;;;0.50;;
25079;SDS011;13071;48.868;9.996;2022-07-12T12:32:25;0.50;;;0.50;;
25079;SDS011;13071;48.868;9.996;2022-07-12T12:35:09;0.68;;;0.60;;
25079;SDS011;13071;48.868;9.996;2022-07-12T12:37:36;0.55;;;0.50;;
25079;SDS011;13071;48.868;9.996;2022-07-12T12:40:03;0.57;;;0.57;;
25079;SDS011;13071;48.868;9.996;2022-07-12T12:42:31;0.50;;;0.50;;
25079;SDS011;13071;48.868;9.996;2022-07-12T12:44:57;0.40;;;0.40;;
25079;SDS011;13071;48.868;9.996;2022-07-12T12:47:24;0.50;;;0.50;;
25079;SDS011;13071;48.868;9.996;2022-07-12T12:49:56;0.45;;;0.45;;
25079;SDS011;13071;48.868;9.996;2022-07-12T12:52:27;0.60;;;0.60;;
25079;SDS011;13071;48.868;9.996;2022-07-12T12:54:55;0.52;;;0.50;;
25079;SDS011;13071;48.868;9.996;2022-07-12T12:57:23;0.47;;;0.47;;
25079;SDS011;13071;48.868;9.996;2022-07-12T12:59:51;0.57;;;0.57;;
25079;SDS011;13071;48.868;9.996;2022-07-12T13:02:18;0.50;;;0.50;;
25079;SDS011;13071;48.868;9.996;2022-07-12T13:04:45;2.35;;;0.65;;
25079;SDS011;13071;48.868;9.996;2022-07-12T13:07:12;0.50;;;0.50;;
25079;SDS011;13071;48.868;9.996;2022-07-12T13:09:40;0.60;;;0.60;;
25079;SDS011;13071;48.868;9.996;2022-07-12T13:12:07;0.60;;;0.60;;
25079;SDS011;13071;48.868;9.996;2022-07-12T13:14:34;0.50;;;0.50;;
25079;SDS011;13071;48.868;9.996;2022-07-12T13:17:01;0.40;;;0.40;;
25079;SDS011;13071;48.868;9.996;2022-07-12T13:19:27;0.60;;;0.60;;
25079;SDS011;13071;48.868;9.996;2022-07-12T13:21:54;0.50;;;0.50;;
25079;SDS011;13071;48.868;9.996;2022-07-12T13:24:20;0.50;;;0.50;;
25079;SDS011;13071;48.868;9.996;2022-07-12T13:26:48;0.52;;;0.52;;
25079;SDS011;13071;48.868;9.996;2022-07-12T13:29:15;0.40;;;0.40;;
25079;SDS011;13071;48.868;9.996;2022-07-12T13:31:42;1.33;;;0.55;;
25079;SDS011;13071;48.868;9.996;2022-07-12T13:34:08;0.50;;;0.50;;
25079;SDS011;13071;48.868;9.996;2022-07-12T13:36:35;0.50;;;0.50;;
25079;SDS011;13071;48.868;9.996;2022-07-12T13:39:02;0.50;;;0.50;;
25079;SDS011;13071;48.868;9.996;2022-07-12T13:41:42;0.60;;;0.60;;
25079;SDS011;13071;48.868;9.996;2022-07-12T13:44:10;0.40;;;0.40;;
25079;SDS011;13071;48.868;9.996;2022-07-12T13:46:37;1.08;;;0.60;;
25079;SDS011;13071;48.868;9.996;2022-07-12T13:49:04;0.70;;;0.70;;
25079;SDS011;13071;48.868;9.996;2022-07-12T13:51:30;0.40;;;0.40;;
25079;SDS011;13071;48.868;9.996;2022-07-12T13:53:57;0.50;;;0.50;;
25079;SDS011;13071;48.868;9.996;2022-07-12T13:56:24;0.60;;;0.60;;
25079;SDS011;13071;48.868;9.996;2022-07-12T13:58:50;0.30;;;0.30;;
25079;SDS011;13071;48.868;9.996;2022-07-12T14:01:18;0.50;;;0.50;;
25079;SDS011;13071;48.868;9.996;2022-07-12T14:03:45;0.57;;;0.57;;
25079;SDS011;13071;48.868;9.996;2022-07-12T14:06:11;3.92;;;0.60;;
25079;SDS011;13071;48.868;9.996;2022-07-12T14:08:38;0.50;;;0.50;;
25079;SDS011;13071;48.868;9.996;2022-07-12T14:11:05;0.50;;;0.50;;
25079;SDS011;13071;48.868;9.996;2022-07-12T14:13:31;0.40;;;0.40;;
25079;SDS011;13071;48.868;9.996;2022-07-12T14:15:58;0.65;;;0.65;;
25079;SDS011;13071;48.868;9.996;2022-07-12T14:18:26;0.50;;;0.50;;
25079;SDS011;13071;48.868;9.996;2022-07-12T14:20:53;0.65;;;0.65;;
25079;SDS011;13071;48.868;9.996;2022-07-12T14:23:19;0.70;;;0.70;;
25079;SDS011;13071;48.868;9.996;2022-07-12T14:25:46;0.50;;;0.50;;
25079;SDS011;13071;48.868;9.996;2022-07-12T14:28:13;0.55;;;0.55;;
25079;SDS011;13071;48.868;9.996;2022-07-12T14:30:39;0.70;;;0.70;;
25079;SDS011;13071;48.868;9.996;2022-07-12T14:33:06;2.38;;;0.68;;
25079;SDS011;13071;48.868;9.996;2022-07-12T14:35:34;0.70;;;0.60;;
25079;SDS011;13071;48.868;9.996;2022-07-12T14:38:00;0.40;;;0.40;;
25079;SDS011;13071;48.868;9.996;2022-07-12T14:40:27;2.20;;;0.50;;
25079;SDS011;13071;48.868;9.996;2022-07-12T14:42:54;0.50;;;0.50;;
25079;SDS011;13071;48.868;9.996;2022-07-12T14:45:22;0.60;;;0.60;;
25079;SDS011;13071;48.868;9.996;2022-07-12T14:47:48;0.65;;;0.50;;
25079;SDS011;13071;48.868;9.996;2022-07-12T14:50:15;0.63;;;0.63;;
25079;SDS011;13071;48.868;9.996;2022-07-12T14:52:43;0.50;;;0.50;;
25079;SDS011;13071;48.868;9.996;2022-07-12T14:55:10;0.60;;;0.60;;
25079;SDS011;13071;48.868;9.996;2022-07-12T14:57:37;0.60;;;0.60;;
25079;SDS011;13071;48.868;9.996;2022-07-12T15:00:05;0.60;;;0.60;;